createdAt,value
2023-05-16T00:02:22.276Z,16.92
2023-05-16T00:04:50.902Z,16.86
2023-05-16T00:07:20.617Z,16.95
2023-05-16T00:09:48.893Z,16.92
2023-05-16T00:12:19.863Z,16.83
2023-05-16T00:14:48.822Z,16.86
2023-05-16T00:17:17.608Z,16.91
2023-05-16T00:19:47.474Z,16.85
2023-05-16T00:22:15.967Z,16.82
2023-05-16T00:24:46.330Z,16.62
2023-05-16T00:27:15.241Z,16.76
2023-05-16T00:29:43.872Z,16.64
2023-05-16T00:32:12.595Z,16.79
2023-05-16T00:34:41.544Z,16.62
2023-05-16T00:37:09.921Z,16.57
2023-05-16T00:39:38.648Z,16.76
2023-05-16T00:42:08.424Z,16.59
2023-05-16T00:44:37.041Z,16.65
2023-05-16T00:47:05.875Z,16.82
2023-05-16T00:49:34.379Z,16.57
2023-05-16T00:52:02.691Z,16.51
2023-05-16T00:54:31.499Z,16.70
2023-05-16T00:56:59.780Z,16.60
2023-05-16T00:59:29.600Z,16.52
2023-05-16T01:01:58.663Z,16.74
2023-05-16T01:04:27.103Z,16.71
2023-05-16T01:06:56.151Z,16.53
2023-05-16T01:09:24.937Z,16.54
2023-05-16T01:11:54.331Z,16.33
2023-05-16T01:14:23.908Z,16.58
2023-05-16T01:16:55.913Z,16.61
2023-05-16T01:19:40.751Z,16.59
2023-05-16T01:22:15.528Z,16.63
2023-05-16T01:24:45.111Z,16.29
2023-05-16T01:27:15.047Z,16.52
2023-05-16T01:29:43.318Z,16.42
2023-05-16T01:32:11.649Z,16.48
2023-05-16T01:34:40.259Z,16.23
2023-05-16T01:37:10.594Z,16.06
2023-05-16T01:39:39.726Z,15.93
2023-05-16T01:42:09.158Z,16.17
2023-05-16T01:44:39.176Z,16.30
2023-05-16T01:47:10.046Z,16.29
2023-05-16T01:49:40.869Z,16.36
2023-05-16T01:52:10.670Z,16.44
2023-05-16T01:54:39.640Z,16.61
2023-05-16T01:57:08.388Z,16.23
2023-05-16T01:59:37.088Z,16.48
2023-05-16T02:02:06.984Z,16.32
2023-05-16T02:04:35.609Z,16.40
2023-05-16T02:07:03.953Z,16.43
2023-05-16T02:09:32.361Z,16.37
2023-05-16T02:12:02.406Z,16.46
2023-05-16T02:14:30.738Z,16.46
2023-05-16T02:16:59.397Z,16.37
2023-05-16T02:19:29.183Z,16.32
2023-05-16T02:21:57.581Z,16.51
2023-05-16T02:24:26.322Z,16.29
2023-05-16T02:26:56.992Z,16.34
2023-05-16T02:29:26.024Z,16.28
2023-05-16T02:31:54.399Z,16.36
2023-05-16T02:34:22.993Z,16.51
2023-05-16T02:36:52.880Z,16.28
2023-05-16T02:39:23.697Z,16.27
2023-05-16T02:41:52.757Z,16.13
2023-05-16T02:44:21.105Z,16.17
2023-05-16T02:46:49.540Z,16.20
2023-05-16T02:49:20.759Z,16.23
2023-05-16T02:51:49.643Z,16.29
2023-05-16T02:54:19.756Z,16.10
2023-05-16T02:56:48.159Z,16.05
2023-05-16T02:59:16.504Z,16.10
2023-05-16T03:01:45.130Z,16.04
2023-05-16T03:04:13.582Z,16.09
2023-05-16T03:06:42.008Z,16.11
2023-05-16T03:09:10.652Z,16.26
2023-05-16T03:11:40.290Z,16.09
2023-05-16T03:14:08.587Z,16.04
2023-05-16T03:16:38.878Z,16.12
2023-05-16T03:19:07.512Z,16.12
2023-05-16T03:21:35.905Z,16.11
2023-05-16T03:24:04.992Z,16.07
2023-05-16T03:26:33.311Z,16.02
2023-05-16T03:29:06.662Z,15.95
2023-05-16T03:31:35.913Z,16.03
2023-05-16T03:34:04.270Z,15.95
2023-05-16T03:36:32.739Z,16.12
2023-05-16T03:39:01.318Z,16.20
2023-05-16T03:41:29.905Z,16.24
2023-05-16T03:43:58.300Z,16.05
2023-05-16T03:46:28.340Z,16.17
2023-05-16T03:48:56.736Z,16.01
2023-05-16T03:51:25.046Z,16.06
2023-05-16T03:53:53.625Z,16.00
2023-05-16T03:56:22.634Z,15.81
2023-05-16T03:58:50.850Z,16.00
2023-05-16T04:01:19.434Z,16.13
2023-05-16T04:03:50.816Z,16.17
2023-05-16T04:06:19.212Z,16.19
2023-05-16T04:08:47.813Z,16.31
2023-05-16T04:11:16.111Z,16.02
2023-05-16T04:13:44.461Z,16.16
2023-05-16T04:16:13.160Z,16.03
2023-05-16T04:18:41.538Z,16.19
2023-05-16T04:21:15.146Z,16.22
2023-05-16T04:23:43.936Z,16.23
2023-05-16T04:26:12.866Z,16.50
2023-05-16T04:28:41.295Z,16.49
2023-05-16T04:31:10.423Z,16.47
2023-05-16T04:33:38.813Z,16.54
2023-05-16T04:36:07.621Z,16.38
2023-05-16T04:38:37.874Z,16.49
2023-05-16T04:41:06.663Z,16.51
2023-05-16T04:43:35.129Z,16.38
2023-05-16T04:46:04.156Z,16.42
2023-05-16T04:48:32.726Z,16.52
2023-05-16T04:51:01.033Z,16.50
2023-05-16T04:53:29.783Z,16.39
2023-05-16T04:56:01.725Z,16.45
2023-05-16T04:58:30.251Z,16.59
2023-05-16T05:01:01.659Z,16.60
2023-05-16T05:03:30.654Z,16.62
2023-05-16T05:05:58.962Z,16.69
2023-05-16T05:08:27.517Z,16.25
2023-05-16T05:10:56.850Z,16.58
2023-05-16T05:13:26.641Z,16.56
2023-05-16T05:15:54.969Z,16.45
2023-05-16T05:18:23.666Z,16.53
2023-05-16T05:20:52.719Z,16.57
2023-05-16T05:23:21.452Z,16.45
2023-05-16T05:25:50.062Z,15.64
2023-05-16T05:28:18.828Z,15.22
2023-05-16T05:30:49.250Z,15.96
2023-05-16T05:33:18.925Z,15.48
2023-05-16T05:35:47.255Z,14.93
2023-05-16T05:38:16.269Z,14.79
2023-05-16T05:40:44.838Z,15.42
2023-05-16T05:43:15.413Z,15.51
2023-05-16T05:45:43.842Z,15.15
2023-05-16T05:48:13.939Z,15.51
2023-05-16T05:50:42.380Z,15.74
2023-05-16T05:53:10.809Z,15.73
2023-05-16T05:55:41.769Z,15.99
2023-05-16T05:58:10.231Z,16.26
2023-05-16T06:00:38.754Z,16.22
2023-05-16T06:03:07.363Z,16.18
2023-05-16T06:05:37.190Z,16.38
2023-05-16T06:08:05.659Z,16.62
2023-05-16T06:10:34.299Z,16.72
2023-05-16T06:13:02.716Z,16.87
2023-05-16T06:15:30.996Z,16.90
2023-05-16T06:17:59.625Z,16.42
2023-05-16T06:20:28.142Z,16.25
2023-05-16T06:23:00.182Z,16.40
2023-05-16T06:25:29.054Z,16.35
2023-05-16T06:27:57.692Z,16.29
2023-05-16T06:30:25.947Z,16.35
2023-05-16T06:32:54.544Z,16.25
2023-05-16T06:35:23.176Z,16.26
2023-05-16T06:37:51.451Z,16.46
2023-05-16T06:40:21.475Z,16.12
2023-05-16T06:42:49.946Z,16.30
2023-05-16T06:45:18.432Z,16.06
2023-05-16T06:47:47.137Z,16.47
2023-05-16T06:50:15.698Z,16.20
2023-05-16T06:52:44.543Z,15.84
2023-05-16T06:55:13.446Z,16.28
2023-05-16T06:57:43.202Z,16.26
2023-05-16T07:00:12.022Z,15.69
2023-05-16T07:02:40.703Z,15.51
2023-05-16T07:05:10.616Z,15.91
2023-05-16T07:07:39.094Z,15.36
2023-05-16T07:10:08.097Z,15.51
2023-05-16T07:12:36.891Z,15.31
2023-05-16T07:15:07.522Z,15.22
2023-05-16T07:17:36.296Z,15.16
2023-05-16T07:20:05.740Z,14.61
2023-05-16T07:22:34.251Z,14.18
2023-05-16T07:25:02.993Z,13.92
2023-05-16T07:27:32.148Z,13.94
2023-05-16T07:30:00.676Z,14.28
2023-05-16T07:32:30.703Z,14.14
2023-05-16T07:34:59.050Z,14.06
2023-05-16T07:37:28.524Z,14.32
2023-05-16T07:39:58.593Z,14.36
2023-05-16T07:42:27.017Z,14.46
2023-05-16T07:44:55.521Z,14.20
2023-05-16T07:47:24.450Z,14.22
2023-05-16T07:49:54.251Z,14.17
2023-05-16T07:52:22.724Z,14.61
2023-05-16T07:54:51.410Z,14.19
2023-05-16T07:57:19.790Z,14.22
2023-05-16T07:59:48.167Z,14.49
2023-05-16T08:02:17.119Z,14.39
2023-05-16T08:04:46.829Z,14.75
2023-05-16T08:07:16.818Z,14.70
2023-05-16T08:09:45.294Z,14.68
2023-05-16T08:12:13.944Z,15.01
2023-05-16T08:14:42.264Z,15.20
2023-05-16T08:17:10.719Z,15.29
2023-05-16T08:19:39.444Z,15.46
2023-05-16T08:22:07.953Z,14.88
2023-05-16T08:24:37.889Z,15.03
2023-05-16T08:27:06.930Z,14.63
2023-05-16T08:29:35.316Z,14.13
2023-05-16T08:32:03.790Z,14.30
2023-05-16T08:34:37.034Z,14.36
2023-05-16T08:37:05.613Z,14.35
2023-05-16T08:39:33.997Z,14.38
2023-05-16T08:42:05.321Z,14.44
2023-05-16T08:44:33.736Z,14.79
2023-05-16T08:47:03.728Z,14.24
2023-05-16T08:49:32.427Z,14.39
2023-05-16T08:52:00.900Z,14.65
2023-05-16T08:54:29.330Z,14.60
2023-05-16T08:57:00.475Z,14.87
2023-05-16T08:59:30.167Z,14.70
2023-05-16T09:01:58.787Z,14.65
2023-05-16T09:04:27.825Z,14.83
2023-05-16T09:06:56.372Z,14.73
2023-05-16T09:09:25.304Z,14.60
2023-05-16T09:11:53.635Z,14.61
2023-05-16T09:14:22.228Z,14.60
2023-05-16T09:17:06.040Z,14.65
2023-05-16T09:19:38.512Z,14.41
2023-05-16T09:22:10.233Z,15.11
2023-05-16T09:24:39.512Z,14.71
2023-05-16T09:27:11.597Z,14.56
2023-05-16T09:29:41.212Z,14.58
2023-05-16T09:32:12.259Z,14.77
2023-05-16T09:34:41.133Z,14.80
2023-05-16T09:37:10.920Z,14.85
2023-05-16T09:39:40.605Z,14.51
2023-05-16T09:42:11.747Z,14.86
2023-05-16T09:44:40.449Z,14.82
2023-05-16T09:47:08.878Z,14.79
2023-05-16T09:49:39.303Z,14.61
2023-05-16T09:52:07.964Z,14.66
2023-05-16T09:54:36.302Z,14.73
2023-05-16T09:57:04.832Z,14.96
2023-05-16T09:59:33.698Z,15.01
2023-05-16T10:02:02.074Z,15.01
2023-05-16T10:04:31.665Z,14.65
2023-05-16T10:07:01.932Z,14.77
2023-05-16T10:09:30.944Z,14.81
2023-05-16T10:12:03.119Z,15.23
2023-05-16T10:14:32.005Z,14.99
2023-05-16T10:17:00.442Z,14.97
2023-05-16T10:19:28.937Z,15.12
2023-05-16T10:21:58.980Z,15.10
2023-05-16T10:24:30.481Z,14.60
2023-05-16T10:26:59.189Z,14.44
2023-05-16T10:29:27.522Z,14.65
2023-05-16T10:31:55.983Z,14.61
2023-05-16T10:34:24.728Z,14.66
2023-05-16T10:36:53.106Z,14.71
2023-05-16T10:39:21.936Z,14.70
2023-05-16T10:41:51.913Z,14.94
2023-05-16T10:44:20.289Z,15.06
2023-05-16T10:46:48.940Z,15.08
2023-05-16T10:49:21.087Z,14.92
2023-05-16T10:51:51.347Z,14.84
2023-05-16T10:54:23.084Z,15.07
2023-05-16T10:56:57.741Z,14.87
2023-05-16T10:59:28.609Z,15.05
2023-05-16T11:01:57.609Z,14.85
2023-05-16T11:04:29.805Z,14.96
2023-05-16T11:06:59.022Z,14.75
2023-05-16T11:09:28.474Z,14.59
2023-05-16T11:12:02.853Z,15.10
2023-05-16T11:14:37.566Z,15.13
2023-05-16T11:17:08.477Z,15.29
2023-05-16T11:19:41.166Z,14.93
2023-05-16T11:22:15.697Z,15.46
2023-05-16T11:24:50.571Z,15.21
2023-05-16T11:27:24.754Z,15.24
2023-05-16T11:29:53.573Z,15.47
2023-05-16T11:32:23.047Z,15.18
2023-05-16T11:34:51.919Z,15.51
2023-05-16T11:37:21.185Z,15.41
2023-05-16T11:39:49.843Z,15.34
2023-05-16T11:42:18.993Z,15.25
2023-05-16T11:44:49.069Z,15.39
2023-05-16T11:47:17.715Z,15.26
2023-05-16T11:49:49.461Z,15.64
2023-05-16T11:52:18.337Z,15.42
2023-05-16T11:54:46.707Z,15.52
2023-05-16T11:57:15.220Z,15.51
2023-05-16T11:59:43.822Z,15.94
2023-05-16T12:02:13.545Z,15.68
2023-05-16T12:04:42.356Z,15.70
2023-05-16T12:07:10.794Z,16.09
2023-05-16T12:09:39.181Z,15.68
2023-05-16T12:12:08.955Z,15.54
2023-05-16T12:14:37.305Z,15.91
2023-05-16T12:17:06.014Z,15.57
2023-05-16T12:19:35.957Z,16.14
2023-05-16T12:22:04.431Z,15.93
2023-05-16T12:24:32.777Z,15.84
2023-05-16T12:27:01.391Z,15.88
2023-05-16T12:29:29.908Z,16.07
2023-05-16T12:31:58.502Z,16.04
2023-05-16T12:34:33.408Z,16.28
2023-05-16T12:37:03.165Z,16.57
2023-05-16T12:39:37.704Z,16.02
2023-05-16T12:42:06.563Z,16.07
2023-05-16T12:44:35.758Z,16.12
2023-05-16T12:47:04.241Z,16.06
2023-05-16T12:49:34.244Z,16.02
2023-05-16T12:52:05.822Z,16.85
2023-05-16T12:54:34.437Z,16.65
2023-05-16T12:57:03.039Z,16.52
2023-05-16T12:59:31.464Z,16.44
2023-05-16T13:01:59.850Z,16.60
2023-05-16T13:04:28.613Z,16.12
2023-05-16T13:06:59.739Z,16.39
2023-05-16T13:09:32.871Z,16.88
2023-05-16T13:12:01.599Z,16.83
2023-05-16T13:14:41.883Z,16.30
2023-05-16T13:17:12.762Z,16.31
2023-05-16T13:19:41.653Z,15.88
2023-05-16T13:22:10.009Z,15.76
2023-05-16T13:24:42.168Z,15.63
2023-05-16T13:27:10.851Z,15.64
2023-05-16T13:29:39.246Z,15.86
2023-05-16T13:32:07.833Z,15.90
2023-05-16T13:34:36.549Z,15.83
2023-05-16T13:37:05.138Z,15.86
2023-05-16T13:39:33.667Z,15.71
2023-05-16T13:42:04.228Z,16.18
2023-05-16T13:44:33.283Z,16.05
2023-05-16T13:47:01.947Z,16.21
2023-05-16T13:49:30.526Z,16.39
2023-05-16T13:51:59.158Z,16.34
2023-05-16T13:54:27.838Z,16.80
2023-05-16T13:56:56.315Z,16.44
2023-05-16T13:59:44.950Z,16.87
2023-05-16T14:02:15.013Z,17.24
2023-05-16T14:04:43.644Z,17.35
2023-05-16T14:07:12.068Z,17.30
2023-05-16T14:09:40.440Z,16.95
2023-05-16T14:12:09.571Z,16.66
2023-05-16T14:14:42.378Z,16.76
2023-05-16T14:17:11.218Z,17.42
2023-05-16T14:19:39.871Z,17.15
2023-05-16T14:22:08.339Z,17.42
2023-05-16T14:24:37.019Z,17.40
2023-05-16T14:27:05.456Z,17.76
2023-05-16T14:29:33.862Z,17.66
2023-05-16T14:32:03.986Z,17.48
2023-05-16T14:34:32.857Z,17.78
2023-05-16T14:37:01.267Z,17.52
2023-05-16T14:39:29.943Z,18.03
2023-05-16T14:41:58.298Z,18.09
2023-05-16T14:44:26.758Z,18.16
2023-05-16T14:46:55.484Z,18.41
2023-05-16T14:49:25.230Z,18.42
2023-05-16T14:51:53.660Z,18.98
2023-05-16T14:54:22.404Z,18.91
2023-05-16T14:56:50.758Z,18.64
2023-05-16T14:59:19.182Z,18.13
2023-05-16T15:01:47.867Z,18.27
2023-05-16T15:04:16.314Z,17.95
2023-05-16T15:06:46.206Z,18.35
2023-05-16T15:09:14.859Z,18.20
2023-05-16T15:11:43.229Z,18.34
2023-05-16T15:14:11.575Z,17.95
2023-05-16T15:16:40.285Z,18.30
2023-05-16T15:19:08.842Z,18.04
2023-05-16T15:21:37.634Z,17.62
2023-05-16T15:24:08.399Z,17.56
2023-05-16T15:26:37.545Z,17.24
2023-05-16T15:29:06.208Z,17.26
2023-05-16T15:31:34.793Z,16.85
2023-05-16T15:34:03.225Z,16.88
2023-05-16T15:36:31.810Z,16.58
2023-05-16T15:39:00.198Z,16.31
2023-05-16T15:41:56.355Z,16.12
2023-05-16T15:44:22.464Z,16.03
2023-05-16T15:47:08.719Z,16.00
2023-05-16T15:49:37.463Z,16.62
2023-05-16T15:52:06.165Z,16.35
2023-05-16T15:54:37.224Z,16.03
2023-05-16T15:57:09.883Z,16.18
2023-05-16T15:59:38.406Z,15.93
2023-05-16T16:02:08.024Z,16.17
2023-05-16T16:04:36.698Z,16.23
2023-05-16T16:07:05.232Z,16.18
2023-05-16T16:09:33.629Z,15.85
2023-05-16T16:12:02.542Z,15.90
2023-05-16T16:14:32.323Z,15.95
2023-05-16T16:17:00.701Z,16.24
2023-05-16T16:19:31.525Z,16.13
2023-05-16T16:21:59.951Z,15.93
2023-05-16T16:24:28.467Z,16.05
2023-05-16T16:26:57.097Z,16.32
2023-05-16T16:29:26.159Z,15.97
2023-05-16T16:31:56.219Z,16.18
2023-05-16T16:34:27.144Z,16.24
2023-05-16T16:36:55.783Z,15.98
2023-05-16T16:39:25.838Z,16.21
2023-05-16T16:41:54.209Z,15.91
2023-05-16T16:44:22.850Z,15.74
2023-05-16T16:46:51.308Z,15.73
2023-05-16T16:49:21.109Z,15.76
2023-05-16T16:51:50.088Z,15.89
2023-05-16T16:54:18.472Z,16.02
2023-05-16T16:56:47.774Z,16.06
2023-05-16T16:59:16.597Z,15.95
2023-05-16T17:01:45.494Z,16.04
2023-05-16T17:04:14.045Z,16.12
2023-05-16T17:06:45.842Z,15.90
2023-05-16T17:09:18.681Z,16.13
2023-05-16T17:11:49.500Z,15.82
2023-05-16T17:14:18.230Z,16.20
2023-05-16T17:16:46.847Z,16.06
2023-05-16T17:19:15.431Z,15.97
2023-05-16T17:21:45.387Z,16.07
2023-05-16T17:24:14.181Z,16.09
2023-05-16T17:26:43.004Z,16.00
2023-05-16T17:29:11.796Z,16.08
2023-05-16T17:31:40.463Z,15.80
2023-05-16T17:34:08.914Z,16.00
2023-05-16T17:36:38.123Z,15.93
2023-05-16T17:39:10.543Z,16.58
2023-05-16T17:41:39.258Z,16.51
2023-05-16T17:44:08.532Z,16.31
2023-05-16T17:46:38.349Z,16.67
2023-05-16T17:49:09.445Z,16.30
2023-05-16T17:51:47.903Z,16.25
2023-05-16T17:54:18.773Z,16.42
2023-05-16T17:56:47.666Z,16.50
2023-05-16T17:59:16.095Z,16.16
2023-05-16T18:01:45.621Z,16.09
2023-05-16T18:04:15.768Z,16.28
2023-05-16T18:06:44.838Z,16.33
2023-05-16T18:09:17.187Z,16.19
2023-05-16T18:11:47.273Z,16.13
2023-05-16T18:14:15.735Z,16.44
2023-05-16T18:16:44.551Z,16.53
2023-05-16T18:19:13.783Z,16.40
2023-05-16T18:21:44.751Z,16.95
2023-05-16T18:24:13.722Z,16.40
2023-05-16T18:26:44.684Z,16.34
2023-05-16T18:29:15.088Z,16.28
2023-05-16T18:31:44.196Z,15.75
2023-05-16T18:34:13.778Z,16.34
2023-05-16T18:36:42.824Z,16.12
2023-05-16T18:39:11.299Z,16.82
2023-05-16T18:41:43.255Z,16.43
2023-05-16T18:44:12.443Z,16.51
2023-05-16T18:46:42.499Z,16.05
2023-05-16T18:49:11.700Z,16.38
2023-05-16T18:51:40.739Z,15.90
2023-05-16T18:54:09.864Z,16.02
2023-05-16T18:56:40.865Z,16.68
2023-05-16T18:59:10.573Z,16.18
2023-05-16T19:01:42.679Z,15.96
2023-05-16T19:04:13.578Z,16.19
2023-05-16T19:06:42.056Z,16.55
2023-05-16T19:09:11.367Z,15.89
2023-05-16T19:11:40.984Z,15.82
2023-05-16T19:14:10.051Z,15.95
2023-05-16T19:16:39.224Z,16.09
2023-05-16T19:19:08.465Z,16.36
2023-05-16T19:21:42.504Z,16.25
2023-05-16T19:24:11.444Z,16.47
2023-05-16T19:26:41.431Z,16.27
2023-05-16T19:29:11.355Z,15.68
2023-05-16T19:31:41.130Z,15.53
2023-05-16T19:34:09.692Z,16.06
2023-05-16T19:36:39.840Z,16.09
2023-05-16T19:39:08.614Z,16.10
2023-05-16T19:41:37.046Z,16.13
2023-05-16T19:44:07.552Z,16.03
2023-05-16T19:46:36.511Z,16.11
2023-05-16T19:49:04.971Z,15.74
2023-05-16T19:51:41.833Z,15.61
2023-05-16T19:54:12.451Z,15.62
2023-05-16T19:56:40.853Z,15.48
2023-05-16T19:59:09.293Z,15.89
2023-05-16T20:01:37.971Z,16.09
2023-05-16T20:04:07.426Z,16.24
2023-05-16T20:06:36.186Z,16.88
2023-05-16T20:09:06.133Z,16.87
2023-05-16T20:11:36.538Z,17.46
2023-05-16T20:14:05.039Z,17.67
2023-05-16T20:16:33.523Z,17.81
2023-05-16T20:19:02.355Z,17.36
2023-05-16T20:21:31.300Z,17.76
2023-05-16T20:23:59.765Z,17.78
2023-05-16T20:26:28.505Z,17.74
2023-05-16T20:28:58.354Z,16.98
2023-05-16T20:31:27.135Z,16.77
2023-05-16T20:33:56.005Z,16.49
2023-05-16T20:36:24.821Z,16.81
2023-05-16T20:38:53.201Z,17.02
2023-05-16T20:41:21.955Z,17.17
2023-05-16T20:43:51.482Z,17.15
2023-05-16T20:46:21.540Z,16.97
2023-05-16T20:48:50.296Z,16.66
2023-05-16T20:51:18.750Z,17.05
2023-05-16T20:53:47.092Z,17.14
2023-05-16T20:56:15.729Z,16.77
2023-05-16T20:58:44.283Z,16.94
2023-05-16T21:01:12.635Z,16.71
2023-05-16T21:03:42.711Z,16.44
2023-05-16T21:06:11.123Z,16.93
2023-05-16T21:08:39.553Z,16.62
2023-05-16T21:11:08.221Z,17.11
2023-05-16T21:13:36.615Z,16.80
2023-05-16T21:16:05.337Z,16.78
2023-05-16T21:18:34.359Z,17.02
2023-05-16T21:21:04.172Z,17.13
2023-05-16T21:23:32.562Z,17.14
2023-05-16T21:26:01.180Z,17.18
2023-05-16T21:28:30.027Z,16.88
2023-05-16T21:31:01.565Z,16.98
2023-05-16T21:33:29.992Z,17.11
2023-05-16T21:36:00.370Z,16.78
2023-05-16T21:38:30.356Z,16.47
2023-05-16T21:41:02.696Z,16.54
2023-05-16T21:43:31.366Z,16.20
2023-05-16T21:45:59.719Z,16.58
2023-05-16T21:48:28.244Z,16.79
2023-05-16T21:50:57.089Z,17.01
2023-05-16T21:53:26.159Z,17.21
2023-05-16T21:55:55.889Z,17.33
2023-05-16T21:58:25.262Z,16.83
2023-05-16T22:00:53.881Z,16.75
2023-05-16T22:03:24.955Z,16.63
2023-05-16T22:05:53.380Z,16.68
2023-05-16T22:08:22.121Z,17.37
2023-05-16T22:10:52.467Z,17.46
2023-05-16T22:13:22.110Z,17.63
2023-05-16T22:16:03.292Z,17.75
2023-05-16T22:18:33.205Z,17.60
2023-05-16T22:21:02.306Z,17.39
2023-05-16T22:23:31.060Z,17.27
2023-05-16T22:25:59.409Z,17.04
2023-05-16T22:28:29.609Z,17.12
2023-05-16T22:30:57.975Z,17.62
2023-05-16T22:33:26.817Z,17.83
2023-05-16T22:35:55.612Z,17.53
2023-05-16T22:38:24.000Z,17.81
2023-05-16T22:40:52.392Z,17.96
2023-05-16T22:43:21.084Z,17.70
2023-05-16T22:45:51.670Z,17.65
2023-05-16T22:48:20.130Z,17.73
2023-05-16T22:50:48.811Z,17.39
2023-05-16T22:53:17.189Z,16.82
2023-05-16T22:55:45.880Z,17.19
2023-05-16T22:58:14.596Z,17.83
2023-05-16T23:00:42.915Z,17.77
2023-05-16T23:03:12.695Z,17.72
2023-05-16T23:05:41.354Z,17.90
2023-05-16T23:08:09.748Z,17.69
2023-05-16T23:10:38.450Z,17.06
2023-05-16T23:13:07.075Z,17.37
2023-05-16T23:15:35.520Z,17.51
2023-05-16T23:18:04.030Z,17.31
2023-05-16T23:20:34.162Z,17.62
2023-05-16T23:23:02.484Z,17.83
2023-05-16T23:25:31.493Z,17.36
2023-05-16T23:28:00.149Z,17.47
2023-05-16T23:30:28.495Z,17.33
2023-05-16T23:32:56.882Z,17.81
2023-05-16T23:35:25.685Z,17.83
2023-05-16T23:37:55.429Z,17.98
2023-05-16T23:40:23.781Z,18.07
2023-05-16T23:42:52.366Z,17.95
2023-05-16T23:45:20.709Z,18.16
2023-05-16T23:47:49.152Z,18.23
2023-05-16T23:50:17.861Z,18.25
2023-05-16T23:52:46.180Z,18.31
2023-05-16T23:55:16.455Z,18.29
2023-05-16T23:57:45.019Z,18.16
